Terminal Aerodrome Forecast
Issued by NWS Cleveland, OH

Home | Current Version | Previous Version | Text Only | Print | Product List | Glossary On
Versions: 1 2 3 4 5 6 7 8 9 10 11 12 13 14 15 16 17 18 19 20
000
FTUS41 KCLE 271600 AAB
TAFCAK
TAF AMD
KCAK 271601Z 2716/2812 33012KT 6SM -SHRA BKN015 OVC050
     FM271700 33012KT P6SM BKN025 OVC050
     FM272130 35008KT P6SM SCT025 BKN050
     FM280600 35004KT P6SM SCT050=

USA.gov is the U.S. government's official web portal to all federal, state and local government web resources and services.